sensor_id;sensor_type;location;lat;lon;timestamp;pressure;altitude;pressure_sealevel;temperature;humidity
65614;BME280;52283;49.292;10.572;2023-03-16T00:00:48;96893.25;;;-2.06;100.00
65614;BME280;52283;49.292;10.572;2023-03-16T00:03:15;96894.38;;;-2.04;100.00
65614;BME280;52283;49.292;10.572;2023-03-16T00:05:43;96895.22;;;-2.10;100.00
65614;BME280;52283;49.292;10.572;2023-03-16T00:08:10;96882.44;;;-2.21;100.00
65614;BME280;52283;49.292;10.572;2023-03-16T00:10:37;96891.50;;;-1.93;100.00
65614;BME280;52283;49.292;10.572;2023-03-16T00:13:03;96885.06;;;-1.79;100.00
65614;BME280;52283;49.292;10.572;2023-03-16T00:15:30;96896.50;;;-1.88;100.00
65614;BME280;52283;49.292;10.572;2023-03-16T00:17:57;96900.50;;;-1.93;100.00
65614;BME280;52283;49.292;10.572;2023-03-16T00:20:24;96897.72;;;-1.89;100.00
65614;BME280;52283;49.292;10.572;2023-03-16T00:22:51;96903.81;;;-2.42;100.00
65614;BME280;52283;49.292;10.572;2023-03-16T00:25:18;96905.66;;;-2.32;100.00
65614;BME280;52283;49.292;10.572;2023-03-16T00:27:44;96902.97;;;-2.02;100.00
65614;BME280;52283;49.292;10.572;2023-03-16T00:30:12;96905.03;;;-2.13;100.00
65614;BME280;52283;49.292;10.572;2023-03-16T00:32:38;96906.16;;;-2.07;100.00
65614;BME280;52283;49.292;10.572;2023-03-16T00:35:08;96913.56;;;-2.04;100.00
65614;BME280;52283;49.292;10.572;2023-03-16T00:37:34;96917.38;;;-2.32;100.00
65614;BME280;52283;49.292;10.572;2023-03-16T00:40:04;96911.22;;;-2.05;100.00
65614;BME280;52283;49.292;10.572;2023-03-16T00:42:32;96915.09;;;-2.03;100.00
65614;BME280;52283;49.292;10.572;2023-03-16T00:44:59;96909.00;;;-2.18;100.00
65614;BME280;52283;49.292;10.572;2023-03-16T00:47:29;96907.09;;;-2.21;100.00
65614;BME280;52283;49.292;10.572;2023-03-16T00:49:56;96906.59;;;-2.12;100.00
65614;BME280;52283;49.292;10.572;2023-03-16T00:52:25;96899.88;;;-2.04;100.00
65614;BME280;52283;49.292;10.572;2023-03-16T00:54:53;96899.44;;;-2.36;100.00
65614;BME280;52283;49.292;10.572;2023-03-16T00:57:21;96902.09;;;-2.29;100.00
65614;BME280;52283;49.292;10.572;2023-03-16T00:59:49;96903.25;;;-2.27;100.00
65614;BME280;52283;49.292;10.572;2023-03-16T01:02:17;96904.09;;;-2.33;100.00
65614;BME280;52283;49.292;10.572;2023-03-16T01:04:48;96903.06;;;-2.12;100.00
65614;BME280;52283;49.292;10.572;2023-03-16T01:07:14;96899.53;;;-2.43;100.00
65614;BME280;52283;49.292;10.572;2023-03-16T01:09:43;96903.47;;;-2.48;100.00
65614;BME280;52283;49.292;10.572;2023-03-16T01:12:13;96911.66;;;-2.44;100.00
65614;BME280;52283;49.292;10.572;2023-03-16T01:14:40;96897.31;;;-2.59;100.00
65614;BME280;52283;49.292;10.572;2023-03-16T01:17:11;96902.75;;;-2.56;100.00
65614;BME280;52283;49.292;10.572;2023-03-16T01:19:38;96899.56;;;-2.51;100.00
65614;BME280;52283;49.292;10.572;2023-03-16T01:22:06;96906.22;;;-2.48;100.00
65614;BME280;52283;49.292;10.572;2023-03-16T01:24:34;96906.75;;;-2.64;100.00
65614;BME280;52283;49.292;10.572;2023-03-16T01:27:03;96905.97;;;-2.64;100.00
65614;BME280;52283;49.292;10.572;2023-03-16T01:29:30;96905.22;;;-2.65;100.00
65614;BME280;52283;49.292;10.572;2023-03-16T01:31:57;96900.50;;;-2.64;100.00
65614;BME280;52283;49.292;10.572;2023-03-16T01:34:23;96899.56;;;-2.51;100.00
65614;BME280;52283;49.292;10.572;2023-03-16T01:36:50;96904.47;;;-2.31;100.00
65614;BME280;52283;49.292;10.572;2023-03-16T01:39:17;96898.44;;;-2.53;100.00
65614;BME280;52283;49.292;10.572;2023-03-16T01:41:45;96897.66;;;-2.54;100.00
65614;BME280;52283;49.292;10.572;2023-03-16T01:44:15;96888.72;;;-2.58;100.00
65614;BME280;52283;49.292;10.572;2023-03-16T01:46:42;96885.44;;;-2.42;100.00
65614;BME280;52283;49.292;10.572;2023-03-16T01:49:10;96879.13;;;-2.39;100.00
65614;BME280;52283;49.292;10.572;2023-03-16T01:51:42;96891.00;;;-2.53;100.00
65614;BME280;52283;49.292;10.572;2023-03-16T01:54:14;96892.22;;;-2.57;100.00
65614;BME280;52283;49.292;10.572;2023-03-16T01:56:49;96906.81;;;-2.71;100.00
65614;BME280;52283;49.292;10.572;2023-03-16T01:59:21;96886.28;;;-2.90;100.00
65614;BME280;52283;49.292;10.572;2023-03-16T02:01:49;96890.38;;;-2.71;100.00
65614;BME280;52283;49.292;10.572;2023-03-16T02:04:25;96885.25;;;-2.62;100.00
65614;BME280;52283;49.292;10.572;2023-03-16T02:06:56;96880.25;;;-2.74;100.00
65614;BME280;52283;49.292;10.572;2023-03-16T02:09:23;96878.19;;;-2.59;100.00
65614;BME280;52283;49.292;10.572;2023-03-16T02:11:51;96887.59;;;-2.64;100.00
65614;BME280;52283;49.292;10.572;2023-03-16T02:14:20;96891.13;;;-2.63;100.00
65614;BME280;52283;49.292;10.572;2023-03-16T02:16:47;96881.00;;;-2.66;100.00
65614;BME280;52283;49.292;10.572;2023-03-16T02:19:20;96889.28;;;-2.77;100.00
65614;BME280;52283;49.292;10.572;2023-03-16T02:21:53;96886.66;;;-2.88;100.00
65614;BME280;52283;49.292;10.572;2023-03-16T02:24:26;96888.50;;;-2.78;100.00
65614;BME280;52283;49.292;10.572;2023-03-16T02:26:55;96882.34;;;-2.85;100.00
65614;BME280;52283;49.292;10.572;2023-03-16T02:29:39;96886.50;;;-2.73;100.00
65614;BME280;52283;49.292;10.572;2023-03-16T02:32:07;96887.31;;;-2.77;100.00
65614;BME280;52283;49.292;10.572;2023-03-16T02:34:34;96890.13;;;-2.84;100.00
65614;BME280;52283;49.292;10.572;2023-03-16T02:37:02;96892.44;;;-2.79;100.00
65614;BME280;52283;49.292;10.572;2023-03-16T02:39:29;96877.34;;;-2.97;100.00
65614;BME280;52283;49.292;10.572;2023-03-16T02:41:56;96876.69;;;-3.09;100.00
65614;BME280;52283;49.292;10.572;2023-03-16T02:44:24;96871.66;;;-3.17;100.00
65614;BME280;52283;49.292;10.572;2023-03-16T02:46:56;96861.47;;;-3.10;100.00
65614;BME280;52283;49.292;10.572;2023-03-16T02:49:28;96864.44;;;-2.93;100.00
65614;BME280;52283;49.292;10.572;2023-03-16T02:51:57;96861.34;;;-2.99;100.00
65614;BME280;52283;49.292;10.572;2023-03-16T02:54:24;96861.00;;;-3.01;100.00
65614;BME280;52283;49.292;10.572;2023-03-16T02:56:50;96857.63;;;-3.19;100.00
65614;BME280;52283;49.292;10.572;2023-03-16T02:59:17;96861.06;;;-3.08;100.00
65614;BME280;52283;49.292;10.572;2023-03-16T03:01:43;96853.53;;;-2.97;100.00
65614;BME280;52283;49.292;10.572;2023-03-16T03:04:11;96858.94;;;-2.90;100.00
65614;BME280;52283;49.292;10.572;2023-03-16T03:06:38;96854.25;;;-2.93;100.00
65614;BME280;52283;49.292;10.572;2023-03-16T03:09:06;96855.47;;;-2.97;100.00
65614;BME280;52283;49.292;10.572;2023-03-16T03:11:32;96847.59;;;-3.33;100.00
65614;BME280;52283;49.292;10.572;2023-03-16T03:13:59;96855.13;;;-3.48;100.00
65614;BME280;52283;49.292;10.572;2023-03-16T03:16:25;96859.47;;;-3.54;100.00
65614;BME280;52283;49.292;10.572;2023-03-16T03:18:52;96855.88;;;-3.44;100.00
65614;BME280;52283;49.292;10.572;2023-03-16T03:21:20;96859.19;;;-3.18;100.00
65614;BME280;52283;49.292;10.572;2023-03-16T03:23:48;96864.75;;;-3.29;100.00
65614;BME280;52283;49.292;10.572;2023-03-16T03:26:15;96861.47;;;-3.10;100.00
65614;BME280;52283;49.292;10.572;2023-03-16T03:28:42;96868.75;;;-2.96;100.00
65614;BME280;52283;49.292;10.572;2023-03-16T03:31:12;96875.38;;;-2.93;100.00
65614;BME280;52283;49.292;10.572;2023-03-16T03:33:39;96878.22;;;-3.04;100.00
65614;BME280;52283;49.292;10.572;2023-03-16T03:36:06;96883.34;;;-3.13;100.00
65614;BME280;52283;49.292;10.572;2023-03-16T03:38:34;96899.38;;;-3.12;100.00
65614;BME280;52283;49.292;10.572;2023-03-16T03:41:01;96888.88;;;-3.20;100.00
65614;BME280;52283;49.292;10.572;2023-03-16T03:43:28;96879.41;;;-3.09;100.00
65614;BME280;52283;49.292;10.572;2023-03-16T03:45:55;96869.13;;;-3.42;100.00
65614;BME280;52283;49.292;10.572;2023-03-16T03:48:23;96856.72;;;-3.50;100.00
65614;BME280;52283;49.292;10.572;2023-03-16T03:50:50;96865.03;;;-3.72;100.00
65614;BME280;52283;49.292;10.572;2023-03-16T03:53:16;96857.63;;;-3.71;100.00
65614;BME280;52283;49.292;10.572;2023-03-16T03:55:44;96855.03;;;-2.89;100.00
65614;BME280;52283;49.292;10.572;2023-03-16T03:58:11;96860.16;;;-3.43;100.00
65614;BME280;52283;49.292;10.572;2023-03-16T04:00:38;96863.28;;;-3.44;100.00
65614;BME280;52283;49.292;10.572;2023-03-16T04:03:05;96852.59;;;-3.24;100.00
65614;BME280;52283;49.292;10.572;2023-03-16T04:05:31;96853.28;;;-3.13;100.00
65614;BME280;52283;49.292;10.572;2023-03-16T04:07:58;96855.63;;;-3.12;100.00
65614;BME280;52283;49.292;10.572;2023-03-16T04:10:26;96852.50;;;-3.14;100.00
65614;BME280;52283;49.292;10.572;2023-03-16T04:12:54;96851.47;;;-2.86;100.00
65614;BME280;52283;49.292;10.572;2023-03-16T04:15:21;96855.78;;;-2.85;100.00
65614;BME280;52283;49.292;10.572;2023-03-16T04:17:47;96846.13;;;-3.00;100.00
65614;BME280;52283;49.292;10.572;2023-03-16T04:20:14;96845.69;;;-2.95;100.00
65614;BME280;52283;49.292;10.572;2023-03-16T04:22:43;96841.44;;;-2.99;100.00
65614;BME280;52283;49.292;10.572;2023-03-16T04:25:12;96839.34;;;-2.85;100.00
65614;BME280;52283;49.292;10.572;2023-03-16T04:27:39;96825.53;;;-3.08;100.00
65614;BME280;52283;49.292;10.572;2023-03-16T04:30:09;96837.75;;;-3.23;100.00
65614;BME280;52283;49.292;10.572;2023-03-16T04:32:37;96829.28;;;-2.95;100.00
65614;BME280;52283;49.292;10.572;2023-03-16T04:35:04;96834.47;;;-3.04;100.00
65614;BME280;52283;49.292;10.572;2023-03-16T04:37:31;96833.81;;;-3.19;100.00
65614;BME280;52283;49.292;10.572;2023-03-16T04:39:58;96831.81;;;-3.11;100.00
65614;BME280;52283;49.292;10.572;2023-03-16T04:42:25;96828.47;;;-2.92;100.00
65614;BME280;52283;49.292;10.572;2023-03-16T04:44:51;96819.25;;;-2.71;100.00
65614;BME280;52283;49.292;10.572;2023-03-16T04:47:19;96821.50;;;-2.59;100.00
65614;BME280;52283;49.292;10.572;2023-03-16T04:49:47;96831.81;;;-3.11;100.00
65614;BME280;52283;49.292;10.572;2023-03-16T04:52:13;96820.09;;;-2.74;100.00
65614;BME280;52283;49.292;10.572;2023-03-16T04:54:40;96816.25;;;-2.80;100.00
65614;BME280;52283;49.292;10.572;2023-03-16T04:57:06;96813.19;;;-2.48;100.00
65614;BME280;52283;49.292;10.572;2023-03-16T04:59:33;96816.72;;;-2.51;100.00
65614;BME280;52283;49.292;10.572;2023-03-16T05:01:59;96819.69;;;-2.38;100.00
65614;BME280;52283;49.292;10.572;2023-03-16T05:04:27;96821.59;;;-2.35;100.00
65614;BME280;52283;49.292;10.572;2023-03-16T05:06:54;96821.16;;;-2.64;100.00
65614;BME280;52283;49.292;10.572;2023-03-16T05:09:20;96812.06;;;-2.54;100.00
65614;BME280;52283;49.292;10.572;2023-03-16T05:11:46;96808.44;;;-2.44;100.00
65614;BME280;52283;49.292;10.572;2023-03-16T05:14:13;96796.16;;;-2.02;100.00
65614;BME280;52283;49.292;10.572;2023-03-16T05:16:40;96805.63;;;-2.10;100.00
65614;BME280;52283;49.292;10.572;2023-03-16T05:19:06;96816.38;;;-2.23;100.00
65614;BME280;52283;49.292;10.572;2023-03-16T05:21:34;96818.31;;;-1.93;100.00
65614;BME280;52283;49.292;10.572;2023-03-16T05:24:03;96822.25;;;-1.94;100.00
65614;BME280;52283;49.292;10.572;2023-03-16T05:26:29;96810.97;;;-2.30;100.00
65614;BME280;52283;49.292;10.572;2023-03-16T05:28:55;96810.88;;;-1.92;100.00
65614;BME280;52283;49.292;10.572;2023-03-16T05:31:22;96823.66;;;-2.43;100.00
65614;BME280;52283;49.292;10.572;2023-03-16T05:33:51;96826.75;;;-2.07;100.00
65614;BME280;52283;49.292;10.572;2023-03-16T05:36:18;96821.66;;;-2.08;100.00
65614;BME280;52283;49.292;10.572;2023-03-16T05:38:45;96816.69;;;-2.17;100.00
65614;BME280;52283;49.292;10.572;2023-03-16T05:41:12;96821.53;;;-2.28;100.00
65614;BME280;52283;49.292;10.572;2023-03-16T05:43:39;96824.59;;;-2.57;100.00
65614;BME280;52283;49.292;10.572;2023-03-16T05:46:05;96821.69;;;-2.42;100.00
65614;BME280;52283;49.292;10.572;2023-03-16T05:48:32;96815.09;;;-2.15;100.00
65614;BME280;52283;49.292;10.572;2023-03-16T05:50:59;96816.28;;;-2.16;100.00
65614;BME280;52283;49.292;10.572;2023-03-16T05:53:30;96819.44;;;-2.17;100.00
65614;BME280;52283;49.292;10.572;2023-03-16T05:55:58;96802.47;;;-2.08;100.00
65614;BME280;52283;49.292;10.572;2023-03-16T05:58:25;96810.97;;;-2.26;100.00
65614;BME280;52283;49.292;10.572;2023-03-16T06:00:52;96807.47;;;-2.00;100.00
65614;BME280;52283;49.292;10.572;2023-03-16T06:03:19;96816.00;;;-1.67;100.00
65614;BME280;52283;49.292;10.572;2023-03-16T06:05:47;96816.16;;;-1.78;100.00
65614;BME280;52283;49.292;10.572;2023-03-16T06:08:13;96817.28;;;-2.02;100.00
65614;BME280;52283;49.292;10.572;2023-03-16T06:10:40;96805.97;;;-1.77;100.00
65614;BME280;52283;49.292;10.572;2023-03-16T06:13:08;96811.88;;;-2.09;100.00
65614;BME280;52283;49.292;10.572;2023-03-16T06:15:34;96824.38;;;-2.05;100.00
65614;BME280;52283;49.292;10.572;2023-03-16T06:18:01;96826.88;;;-1.87;100.00
65614;BME280;52283;49.292;10.572;2023-03-16T06:20:27;96824.31;;;-2.01;100.00
65614;BME280;52283;49.292;10.572;2023-03-16T06:22:54;96823.06;;;-1.97;100.00
65614;BME280;52283;49.292;10.572;2023-03-16T06:25:20;96830.06;;;-1.92;100.00
65614;BME280;52283;49.292;10.572;2023-03-16T06:27:48;96839.16;;;-2.33;100.00
65614;BME280;52283;49.292;10.572;2023-03-16T06:30:16;96841.69;;;-2.83;100.00
65614;BME280;52283;49.292;10.572;2023-03-16T06:32:43;96842.19;;;-2.58;100.00
65614;BME280;52283;49.292;10.572;2023-03-16T06:35:11;96834.16;;;-2.38;100.00
65614;BME280;52283;49.292;10.572;2023-03-16T06:37:38;96840.50;;;-2.44;100.00
65614;BME280;52283;49.292;10.572;2023-03-16T06:40:06;96841.22;;;-2.40;100.00
65614;BME280;52283;49.292;10.572;2023-03-16T06:42:32;96843.19;;;-2.41;100.00
65614;BME280;52283;49.292;10.572;2023-03-16T06:44:59;96843.47;;;-2.66;100.00
65614;BME280;52283;49.292;10.572;2023-03-16T06:47:27;96842.19;;;-2.58;100.00
65614;BME280;52283;49.292;10.572;2023-03-16T06:49:53;96833.75;;;-2.74;100.00
65614;BME280;52283;49.292;10.572;2023-03-16T06:52:20;96829.44;;;-2.71;100.00
65614;BME280;52283;49.292;10.572;2023-03-16T06:54:46;96829.69;;;-2.59;100.00
65614;BME280;52283;49.292;10.572;2023-03-16T06:57:13;96823.41;;;-2.56;100.00
65614;BME280;52283;49.292;10.572;2023-03-16T06:59:39;96812.97;;;-2.34;100.00
65614;BME280;52283;49.292;10.572;2023-03-16T07:02:06;96818.16;;;-2.39;100.00
65614;BME280;52283;49.292;10.572;2023-03-16T07:04:34;96816.84;;;-2.28;100.00
65614;BME280;52283;49.292;10.572;2023-03-16T07:07:00;96818.13;;;-2.05;100.00
65614;BME280;52283;49.292;10.572;2023-03-16T07:09:27;96820.34;;;-1.97;100.00
65614;BME280;52283;49.292;10.572;2023-03-16T07:11:54;96817.91;;;-1.91;100.00
65614;BME280;52283;49.292;10.572;2023-03-16T07:14:20;96831.19;;;-1.90;100.00
65614;BME280;52283;49.292;10.572;2023-03-16T07:16:47;96826.56;;;-1.66;100.00
65614;BME280;52283;49.292;10.572;2023-03-16T07:19:14;96828.25;;;-1.48;100.00
65614;BME280;52283;49.292;10.572;2023-03-16T07:21:41;96835.44;;;-1.31;100.00
65614;BME280;52283;49.292;10.572;2023-03-16T07:24:09;96824.66;;;-1.18;100.00
65614;BME280;52283;49.292;10.572;2023-03-16T07:26:37;96833.47;;;-1.07;100.00
65614;BME280;52283;49.292;10.572;2023-03-16T07:29:04;96835.34;;;-1.01;100.00
65614;BME280;52283;49.292;10.572;2023-03-16T07:31:31;96840.09;;;-0.81;100.00
65614;BME280;52283;49.292;10.572;2023-03-16T07:33:57;96838.78;;;-0.97;100.00
65614;BME280;52283;49.292;10.572;2023-03-16T07:36:24;96841.16;;;-0.99;100.00
65614;BME280;52283;49.292;10.572;2023-03-16T07:38:52;96840.97;;;-0.88;100.00
65614;BME280;52283;49.292;10.572;2023-03-16T07:41:18;96846.16;;;-0.94;100.00
65614;BME280;52283;49.292;10.572;2023-03-16T07:43:45;96847.00;;;-0.73;100.00
65614;BME280;52283;49.292;10.572;2023-03-16T07:46:12;96847.63;;;-0.66;100.00
65614;BME280;52283;49.292;10.572;2023-03-16T07:48:38;96842.56;;;-0.67;100.00
65614;BME280;52283;49.292;10.572;2023-03-16T07:51:07;96847.72;;;-0.49;100.00
65614;BME280;52283;49.292;10.572;2023-03-16T07:53:33;96841.63;;;-0.37;100.00
65614;BME280;52283;49.292;10.572;2023-03-16T07:56:01;96843.88;;;-0.12;100.00
65614;BME280;52283;49.292;10.572;2023-03-16T07:58:28;96845.06;;;-0.13;100.00
65614;BME280;52283;49.292;10.572;2023-03-16T08:00:55;96843.78;;;0.11;100.00
65614;BME280;52283;49.292;10.572;2023-03-16T08:03:22;96836.50;;;0.89;100.00
65614;BME280;52283;49.292;10.572;2023-03-16T08:05:49;96849.09;;;1.52;100.00
65614;BME280;52283;49.292;10.572;2023-03-16T08:08:16;96850.00;;;1.62;100.00
65614;BME280;52283;49.292;10.572;2023-03-16T08:10:42;96844.47;;;2.58;100.00
65614;BME280;52283;49.292;10.572;2023-03-16T08:13:10;96845.03;;;2.78;100.00
65614;BME280;52283;49.292;10.572;2023-03-16T08:15:37;96838.31;;;3.39;100.00
65614;BME280;52283;49.292;10.572;2023-03-16T08:18:04;96845.78;;;3.04;100.00
65614;BME280;52283;49.292;10.572;2023-03-16T08:20:31;96843.44;;;3.15;100.00
65614;BME280;52283;49.292;10.572;2023-03-16T08:22:58;96850.44;;;2.94;100.00
65614;BME280;52283;49.292;10.572;2023-03-16T08:25:24;96838.84;;;2.74;100.00
65614;BME280;52283;49.292;10.572;2023-03-16T08:27:51;96852.66;;;2.74;100.00
65614;BME280;52283;49.292;10.572;2023-03-16T08:30:22;96850.28;;;3.23;100.00
65614;BME280;52283;49.292;10.572;2023-03-16T08:32:49;96845.59;;;3.67;100.00
65614;BME280;52283;49.292;10.572;2023-03-16T08:35:16;96842.19;;;3.63;100.00
65614;BME280;52283;49.292;10.572;2023-03-16T08:37:43;96843.97;;;3.23;100.00
65614;BME280;52283;49.292;10.572;2023-03-16T08:40:11;96848.38;;;3.67;100.00
65614;BME280;52283;49.292;10.572;2023-03-16T08:42:40;96854.91;;;3.26;100.00
65614;BME280;52283;49.292;10.572;2023-03-16T08:45:08;96852.47;;;3.97;100.00
65614;BME280;52283;49.292;10.572;2023-03-16T08:47:36;96847.63;;;4.11;100.00
65614;BME280;52283;49.292;10.572;2023-03-16T08:50:03;96856.03;;;4.07;100.00
65614;BME280;52283;49.292;10.572;2023-03-16T08:52:31;96847.59;;;3.67;100.00
65614;BME280;52283;49.292;10.572;2023-03-16T08:54:58;96835.31;;;4.12;100.00
65614;BME280;52283;49.292;10.572;2023-03-16T08:57:25;96853.28;;;3.51;100.00
65614;BME280;52283;49.292;10.572;2023-03-16T08:59:51;96855.00;;;4.14;100.00
65614;BME280;52283;49.292;10.572;2023-03-16T09:02:18;96840.00;;;4.86;100.00
65614;BME280;52283;49.292;10.572;2023-03-16T09:04:46;96837.13;;;4.58;100.00
65614;BME280;52283;49.292;10.572;2023-03-16T09:07:13;96845.88;;;4.04;100.00
65614;BME280;52283;49.292;10.572;2023-03-16T09:09:40;96843.91;;;4.36;100.00
65614;BME280;52283;49.292;10.572;2023-03-16T09:12:07;96855.22;;;4.19;100.00
65614;BME280;52283;49.292;10.572;2023-03-16T09:14:33;96839.56;;;4.56;100.00
65614;BME280;52283;49.292;10.572;2023-03-16T09:17:01;96841.97;;;3.92;100.00
65614;BME280;52283;49.292;10.572;2023-03-16T09:19:28;96849.03;;;4.15;100.00
65614;BME280;52283;49.292;10.572;2023-03-16T09:21:57;96843.94;;;4.67;100.00
65614;BME280;52283;49.292;10.572;2023-03-16T09:24:23;96830.63;;;4.52;98.52
65614;BME280;52283;49.292;10.572;2023-03-16T09:26:50;96829.66;;;4.77;98.77
65614;BME280;52283;49.292;10.572;2023-03-16T09:29:17;96832.63;;;4.21;100.00
65614;BME280;52283;49.292;10.572;2023-03-16T09:31:43;96832.25;;;3.88;99.14
65614;BME280;52283;49.292;10.572;2023-03-16T09:34:10;96822.47;;;4.89;99.76
65614;BME280;52283;49.292;10.572;2023-03-16T09:36:37;96828.41;;;5.18;95.86
65614;BME280;52283;49.292;10.572;2023-03-16T09:39:04;96816.19;;;4.98;92.77
65614;BME280;52283;49.292;10.572;2023-03-16T09:41:41;96833.00;;;4.63;98.56
65614;BME280;52283;49.292;10.572;2023-03-16T09:44:20;96833.50;;;4.40;97.17
65614;BME280;52283;49.292;10.572;2023-03-16T09:46:49;96827.34;;;5.25;96.97
65614;BME280;52283;49.292;10.572;2023-03-16T09:49:18;96821.53;;;5.50;91.64
65614;BME280;52283;49.292;10.572;2023-03-16T09:51:50;96815.50;;;5.34;92.39
65614;BME280;52283;49.292;10.572;2023-03-16T09:54:26;96800.56;;;5.31;83.54
65614;BME280;52283;49.292;10.572;2023-03-16T09:56:56;96808.31;;;5.64;88.69
65614;BME280;52283;49.292;10.572;2023-03-16T09:59:23;96788.50;;;4.98;86.34
65614;BME280;52283;49.292;10.572;2023-03-16T10:02:08;96805.66;;;5.78;86.43
65614;BME280;52283;49.292;10.572;2023-03-16T10:04:43;96798.56;;;4.73;86.28
65614;BME280;52283;49.292;10.572;2023-03-16T10:07:22;96790.41;;;6.01;83.47
65614;BME280;52283;49.292;10.572;2023-03-16T10:09:55;96781.78;;;5.72;79.67
65614;BME280;52283;49.292;10.572;2023-03-16T10:12:27;96765.63;;;5.43;74.53
65614;BME280;52283;49.292;10.572;2023-03-16T10:14:58;96777.16;;;5.78;79.24
65614;BME280;52283;49.292;10.572;2023-03-16T10:17:32;96772.72;;;5.62;77.71
65614;BME280;52283;49.292;10.572;2023-03-16T10:20:03;96773.31;;;5.85;74.11
65614;BME280;52283;49.292;10.572;2023-03-16T10:22:34;96768.66;;;6.09;75.36
65614;BME280;52283;49.292;10.572;2023-03-16T10:25:08;96764.69;;;5.73;72.05
65614;BME280;52283;49.292;10.572;2023-03-16T10:27:38;96767.53;;;7.24;72.93
65614;BME280;52283;49.292;10.572;2023-03-16T10:30:16;96762.78;;;6.58;71.91
65614;BME280;52283;49.292;10.572;2023-03-16T10:32:45;96755.16;;;7.25;71.82
65614;BME280;52283;49.292;10.572;2023-03-16T10:35:19;96762.59;;;6.29;75.56
65614;BME280;52283;49.292;10.572;2023-03-16T10:37:48;96739.88;;;6.39;68.88
65614;BME280;52283;49.292;10.572;2023-03-16T10:40:17;96748.69;;;6.38;70.39
65614;BME280;52283;49.292;10.572;2023-03-16T10:42:44;96747.97;;;6.61;69.38
65614;BME280;52283;49.292;10.572;2023-03-16T10:45:23;96737.66;;;6.86;66.17
65614;BME280;52283;49.292;10.572;2023-03-16T10:47:51;96747.34;;;6.24;67.32
65614;BME280;52283;49.292;10.572;2023-03-16T10:50:23;96730.22;;;7.54;68.28
65614;BME280;52283;49.292;10.572;2023-03-16T10:52:53;96730.81;;;6.72;64.59
65614;BME280;52283;49.292;10.572;2023-03-16T10:55:24;96732.94;;;5.84;64.60
65614;BME280;52283;49.292;10.572;2023-03-16T10:57:54;96725.66;;;6.80;65.25
65614;BME280;52283;49.292;10.572;2023-03-16T11:00:24;96744.16;;;6.07;68.06
65614;BME280;52283;49.292;10.572;2023-03-16T11:02:54;96716.81;;;6.90;65.09
65614;BME280;52283;49.292;10.572;2023-03-16T11:05:26;96718.91;;;6.05;64.59
65614;BME280;52283;49.292;10.572;2023-03-16T11:07:58;96709.84;;;6.62;64.59
65614;BME280;52283;49.292;10.572;2023-03-16T11:10:31;96697.53;;;6.87;62.26
65614;BME280;52283;49.292;10.572;2023-03-16T11:13:04;96710.72;;;7.01;63.56
65614;BME280;52283;49.292;10.572;2023-03-16T11:15:36;96703.34;;;7.37;63.99
65614;BME280;52283;49.292;10.572;2023-03-16T11:18:05;96710.94;;;7.12;65.42
65614;BME280;52283;49.292;10.572;2023-03-16T11:20:35;96704.06;;;7.22;64.98
65614;BME280;52283;49.292;10.572;2023-03-16T11:23:05;96701.56;;;8.07;64.18
65614;BME280;52283;49.292;10.572;2023-03-16T11:25:40;96692.22;;;8.54;61.38
65614;BME280;52283;49.292;10.572;2023-03-16T11:28:15;96694.66;;;7.88;61.17
65614;BME280;52283;49.292;10.572;2023-03-16T11:30:46;96707.44;;;7.80;63.42
65614;BME280;52283;49.292;10.572;2023-03-16T11:33:16;96699.34;;;7.14;63.36
65614;BME280;52283;49.292;10.572;2023-03-16T11:35:47;96702.66;;;7.03;63.10
65614;BME280;52283;49.292;10.572;2023-03-16T11:38:18;96705.03;;;7.73;63.14
65614;BME280;52283;49.292;10.572;2023-03-16T11:40:53;96705.84;;;7.49;63.67
65614;BME280;52283;49.292;10.572;2023-03-16T11:43:51;96701.38;;;7.28;61.98
65614;BME280;52283;49.292;10.572;2023-03-16T11:46:19;96707.22;;;7.54;63.13
65614;BME280;52283;49.292;10.572;2023-03-16T11:48:55;96696.97;;;8.19;62.57
65614;BME280;52283;49.292;10.572;2023-03-16T11:51:33;96683.63;;;8.93;61.41
65614;BME280;52283;49.292;10.572;2023-03-16T11:54:10;96682.84;;;8.08;58.04
65614;BME280;52283;49.292;10.572;2023-03-16T11:56:48;96685.34;;;8.70;58.64
65614;BME280;52283;49.292;10.572;2023-03-16T11:59:37;96690.66;;;7.21;61.52
65614;BME280;52283;49.292;10.572;2023-03-16T12:02:32;96679.34;;;8.57;59.76
65614;BME280;52283;49.292;10.572;2023-03-16T12:05:21;96665.38;;;8.37;58.86
65614;BME280;52283;49.292;10.572;2023-03-16T12:07:54;96657.75;;;7.73;57.40
65614;BME280;52283;49.292;10.572;2023-03-16T12:10:28;96645.75;;;8.31;54.58
65614;BME280;52283;49.292;10.572;2023-03-16T12:13:14;96649.16;;;8.06;54.53
65614;BME280;52283;49.292;10.572;2023-03-16T12:15:47;96649.22;;;8.76;55.24
65614;BME280;52283;49.292;10.572;2023-03-16T12:18:17;96646.41;;;9.94;55.17
65614;BME280;52283;49.292;10.572;2023-03-16T12:20:52;96627.66;;;8.21;52.13
65614;BME280;52283;49.292;10.572;2023-03-16T12:23:26;96614.97;;;9.16;51.08
65614;BME280;52283;49.292;10.572;2023-03-16T12:25:56;96633.34;;;7.97;52.32
65614;BME280;52283;49.292;10.572;2023-03-16T12:28:27;96621.16;;;9.26;50.31
65614;BME280;52283;49.292;10.572;2023-03-16T12:31:02;96621.06;;;7.89;51.42
65614;BME280;52283;49.292;10.572;2023-03-16T12:33:42;96614.16;;;8.69;49.23
65614;BME280;52283;49.292;10.572;2023-03-16T12:36:32;96609.19;;;9.20;49.11
65614;BME280;52283;49.292;10.572;2023-03-16T12:39:04;96598.63;;;9.29;47.34
65614;BME280;52283;49.292;10.572;2023-03-16T12:41:37;96604.41;;;10.09;47.87
65614;BME280;52283;49.292;10.572;2023-03-16T12:44:14;96588.31;;;8.48;46.52
65614;BME280;52283;49.292;10.572;2023-03-16T12:46:49;96590.47;;;8.39;47.07
65614;BME280;52283;49.292;10.572;2023-03-16T12:49:21;96583.97;;;9.34;45.45
65614;BME280;52283;49.292;10.572;2023-03-16T12:51:57;96582.84;;;9.21;45.53
65614;BME280;52283;49.292;10.572;2023-03-16T12:54:24;96596.22;;;7.85;45.79